sensor_id;sensor_type;location;lat;lon;timestamp;P1;durP1;ratioP1;P2;durP2;ratioP2
32501;SDS011;18952;52.516;13.460;2023-04-25T00:02:17;10.05;;;3.95;;
32501;SDS011;18952;52.516;13.460;2023-04-25T00:04:43;5.32;;;3.53;;
32501;SDS011;18952;52.516;13.460;2023-04-25T00:07:11;7.00;;;3.50;;
32501;SDS011;18952;52.516;13.460;2023-04-25T00:09:38;5.45;;;3.30;;
32501;SDS011;18952;52.516;13.460;2023-04-25T00:12:04;9.45;;;3.60;;
32501;SDS011;18952;52.516;13.460;2023-04-25T00:14:31;7.30;;;3.10;;
32501;SDS011;18952;52.516;13.460;2023-04-25T00:16:58;5.07;;;3.00;;
32501;SDS011;18952;52.516;13.460;2023-04-25T00:19:25;5.72;;;3.13;;
32501;SDS011;18952;52.516;13.460;2023-04-25T00:21:52;5.55;;;2.70;;
32501;SDS011;18952;52.516;13.460;2023-04-25T00:24:19;6.93;;;2.90;;
32501;SDS011;18952;52.516;13.460;2023-04-25T00:26:47;10.35;;;3.10;;
32501;SDS011;18952;52.516;13.460;2023-04-25T00:29:15;10.63;;;3.05;;
32501;SDS011;18952;52.516;13.460;2023-04-25T00:31:42;9.02;;;3.00;;
32501;SDS011;18952;52.516;13.460;2023-04-25T00:34:13;6.35;;;2.90;;
32501;SDS011;18952;52.516;13.460;2023-04-25T00:36:42;7.30;;;3.00;;
32501;SDS011;18952;52.516;13.460;2023-04-25T00:39:14;7.80;;;3.10;;
32501;SDS011;18952;52.516;13.460;2023-04-25T00:41:40;10.20;;;3.17;;
32501;SDS011;18952;52.516;13.460;2023-04-25T00:44:08;9.40;;;3.13;;
32501;SDS011;18952;52.516;13.460;2023-04-25T00:46:35;5.03;;;3.03;;
32501;SDS011;18952;52.516;13.460;2023-04-25T00:49:02;8.15;;;3.42;;
32501;SDS011;18952;52.516;13.460;2023-04-25T00:51:29;7.85;;;3.33;;
32501;SDS011;18952;52.516;13.460;2023-04-25T00:53:58;8.57;;;3.30;;
32501;SDS011;18952;52.516;13.460;2023-04-25T00:56:26;7.93;;;2.80;;
32501;SDS011;18952;52.516;13.460;2023-04-25T00:58:53;11.15;;;3.20;;
32501;SDS011;18952;52.516;13.460;2023-04-25T01:01:20;7.97;;;3.40;;
32501;SDS011;18952;52.516;13.460;2023-04-25T01:03:47;8.82;;;3.45;;
32501;SDS011;18952;52.516;13.460;2023-04-25T01:06:17;8.13;;;3.58;;
32501;SDS011;18952;52.516;13.460;2023-04-25T01:08:45;9.98;;;3.63;;
32501;SDS011;18952;52.516;13.460;2023-04-25T01:11:12;8.20;;;3.65;;
32501;SDS011;18952;52.516;13.460;2023-04-25T01:13:38;8.20;;;3.97;;
32501;SDS011;18952;52.516;13.460;2023-04-25T01:16:05;10.55;;;4.25;;
32501;SDS011;18952;52.516;13.460;2023-04-25T01:18:32;8.93;;;3.97;;
32501;SDS011;18952;52.516;13.460;2023-04-25T01:21:06;11.63;;;4.15;;
32501;SDS011;18952;52.516;13.460;2023-04-25T01:23:34;16.00;;;4.00;;
32501;SDS011;18952;52.516;13.460;2023-04-25T01:26:01;12.10;;;4.30;;
32501;SDS011;18952;52.516;13.460;2023-04-25T01:28:29;12.05;;;3.58;;
32501;SDS011;18952;52.516;13.460;2023-04-25T01:30:56;17.38;;;4.32;;
32501;SDS011;18952;52.516;13.460;2023-04-25T01:33:23;11.15;;;4.00;;
32501;SDS011;18952;52.516;13.460;2023-04-25T01:35:50;10.90;;;4.20;;
32501;SDS011;18952;52.516;13.460;2023-04-25T01:38:18;9.50;;;3.85;;
32501;SDS011;18952;52.516;13.460;2023-04-25T01:40:45;12.20;;;4.43;;
32501;SDS011;18952;52.516;13.460;2023-04-25T01:43:14;10.95;;;4.63;;
32501;SDS011;18952;52.516;13.460;2023-04-25T01:45:42;12.48;;;4.22;;
32501;SDS011;18952;52.516;13.460;2023-04-25T01:48:13;13.02;;;4.00;;
32501;SDS011;18952;52.516;13.460;2023-04-25T01:50:42;10.80;;;4.45;;
32501;SDS011;18952;52.516;13.460;2023-04-25T01:53:10;12.23;;;4.35;;
32501;SDS011;18952;52.516;13.460;2023-04-25T01:55:39;13.88;;;4.47;;
32501;SDS011;18952;52.516;13.460;2023-04-25T01:58:07;13.57;;;4.63;;
32501;SDS011;18952;52.516;13.460;2023-04-25T02:00:36;12.10;;;4.13;;
32501;SDS011;18952;52.516;13.460;2023-04-25T02:03:03;11.32;;;4.85;;
32501;SDS011;18952;52.516;13.460;2023-04-25T02:05:34;11.77;;;4.18;;
32501;SDS011;18952;52.516;13.460;2023-04-25T02:08:20;12.18;;;4.43;;
32501;SDS011;18952;52.516;13.460;2023-04-25T02:10:48;12.40;;;4.78;;
32501;SDS011;18952;52.516;13.460;2023-04-25T02:13:16;11.38;;;4.38;;
32501;SDS011;18952;52.516;13.460;2023-04-25T02:18:36;9.23;;;4.55;;
32501;SDS011;18952;52.516;13.460;2023-04-25T02:21:03;9.52;;;4.60;;
32501;SDS011;18952;52.516;13.460;2023-04-25T02:23:30;11.05;;;5.10;;
32501;SDS011;18952;52.516;13.460;2023-04-25T02:25:57;12.95;;;4.80;;
32501;SDS011;18952;52.516;13.460;2023-04-25T02:28:25;8.65;;;4.50;;
32501;SDS011;18952;52.516;13.460;2023-04-25T02:30:52;10.63;;;4.70;;
32501;SDS011;18952;52.516;13.460;2023-04-25T02:33:22;13.63;;;5.00;;
32501;SDS011;18952;52.516;13.460;2023-04-25T02:35:49;10.05;;;5.03;;
32501;SDS011;18952;52.516;13.460;2023-04-25T02:38:18;12.05;;;5.05;;
32501;SDS011;18952;52.516;13.460;2023-04-25T02:40:47;15.27;;;5.10;;
32501;SDS011;18952;52.516;13.460;2023-04-25T02:43:22;9.73;;;4.70;;
32501;SDS011;18952;52.516;13.460;2023-04-25T02:45:49;14.55;;;5.60;;
32501;SDS011;18952;52.516;13.460;2023-04-25T02:48:16;11.40;;;5.32;;
32501;SDS011;18952;52.516;13.460;2023-04-25T02:50:43;10.00;;;4.78;;
32501;SDS011;18952;52.516;13.460;2023-04-25T02:53:10;12.55;;;5.07;;
32501;SDS011;18952;52.516;13.460;2023-04-25T02:55:36;13.20;;;5.50;;
32501;SDS011;18952;52.516;13.460;2023-04-25T02:58:03;14.02;;;5.32;;
32501;SDS011;18952;52.516;13.460;2023-04-25T03:00:30;11.13;;;5.53;;
32501;SDS011;18952;52.516;13.460;2023-04-25T03:02:57;11.63;;;5.30;;
32501;SDS011;18952;52.516;13.460;2023-04-25T03:05:24;9.48;;;5.32;;
32501;SDS011;18952;52.516;13.460;2023-04-25T03:07:51;12.77;;;5.18;;
32501;SDS011;18952;52.516;13.460;2023-04-25T03:10:17;11.27;;;5.82;;
32501;SDS011;18952;52.516;13.460;2023-04-25T03:12:44;13.65;;;5.40;;
32501;SDS011;18952;52.516;13.460;2023-04-25T03:15:12;14.75;;;5.38;;
32501;SDS011;18952;52.516;13.460;2023-04-25T03:17:39;17.73;;;5.65;;
32501;SDS011;18952;52.516;13.460;2023-04-25T03:20:09;12.65;;;5.50;;
32501;SDS011;18952;52.516;13.460;2023-04-25T03:22:36;9.82;;;5.57;;
32501;SDS011;18952;52.516;13.460;2023-04-25T03:25:03;11.52;;;5.65;;
32501;SDS011;18952;52.516;13.460;2023-04-25T03:27:31;16.00;;;5.28;;
32501;SDS011;18952;52.516;13.460;2023-04-25T03:29:57;12.07;;;6.20;;
32501;SDS011;18952;52.516;13.460;2023-04-25T03:32:24;12.82;;;6.45;;
32501;SDS011;18952;52.516;13.460;2023-04-25T03:34:51;12.00;;;5.85;;
32501;SDS011;18952;52.516;13.460;2023-04-25T03:37:19;14.52;;;5.82;;
32501;SDS011;18952;52.516;13.460;2023-04-25T03:39:45;12.10;;;6.40;;
32501;SDS011;18952;52.516;13.460;2023-04-25T03:42:13;12.95;;;6.35;;
32501;SDS011;18952;52.516;13.460;2023-04-25T03:44:40;15.23;;;6.13;;
32501;SDS011;18952;52.516;13.460;2023-04-25T03:47:08;12.63;;;5.13;;
32501;SDS011;18952;52.516;13.460;2023-04-25T03:49:35;15.73;;;5.85;;
32501;SDS011;18952;52.516;13.460;2023-04-25T03:52:03;10.98;;;6.38;;
32501;SDS011;18952;52.516;13.460;2023-04-25T03:54:30;14.20;;;6.13;;
32501;SDS011;18952;52.516;13.460;2023-04-25T03:57:00;12.98;;;6.50;;
32501;SDS011;18952;52.516;13.460;2023-04-25T03:59:27;12.02;;;6.38;;
32501;SDS011;18952;52.516;13.460;2023-04-25T04:01:53;14.02;;;5.97;;
32501;SDS011;18952;52.516;13.460;2023-04-25T04:04:20;12.90;;;5.90;;
32501;SDS011;18952;52.516;13.460;2023-04-25T04:06:47;14.00;;;5.70;;
32501;SDS011;18952;52.516;13.460;2023-04-25T04:09:14;11.63;;;6.40;;
32501;SDS011;18952;52.516;13.460;2023-04-25T04:11:41;15.98;;;6.57;;
32501;SDS011;18952;52.516;13.460;2023-04-25T04:14:08;15.50;;;6.50;;
32501;SDS011;18952;52.516;13.460;2023-04-25T04:16:34;11.77;;;5.43;;
32501;SDS011;18952;52.516;13.460;2023-04-25T04:19:01;13.98;;;6.20;;
32501;SDS011;18952;52.516;13.460;2023-04-25T04:21:28;11.70;;;5.85;;
32501;SDS011;18952;52.516;13.460;2023-04-25T04:23:55;11.80;;;5.63;;
32501;SDS011;18952;52.516;13.460;2023-04-25T04:26:23;12.93;;;6.13;;
32501;SDS011;18952;52.516;13.460;2023-04-25T04:28:52;12.80;;;5.68;;
32501;SDS011;18952;52.516;13.460;2023-04-25T04:31:29;11.80;;;5.57;;
32501;SDS011;18952;52.516;13.460;2023-04-25T04:33:57;11.77;;;5.70;;
32501;SDS011;18952;52.516;13.460;2023-04-25T04:36:25;10.80;;;5.55;;
32501;SDS011;18952;52.516;13.460;2023-04-25T04:38:56;16.65;;;5.95;;
32501;SDS011;18952;52.516;13.460;2023-04-25T04:41:27;9.50;;;5.38;;
32501;SDS011;18952;52.516;13.460;2023-04-25T04:44:04;14.20;;;5.63;;
32501;SDS011;18952;52.516;13.460;2023-04-25T04:46:35;13.15;;;5.50;;
32501;SDS011;18952;52.516;13.460;2023-04-25T04:49:11;10.98;;;5.47;;
32501;SDS011;18952;52.516;13.460;2023-04-25T04:51:40;9.95;;;5.30;;
32501;SDS011;18952;52.516;13.460;2023-04-25T04:54:07;11.20;;;6.10;;
32501;SDS011;18952;52.516;13.460;2023-04-25T04:56:36;11.13;;;5.57;;
32501;SDS011;18952;52.516;13.460;2023-04-25T04:59:03;12.10;;;5.28;;
32501;SDS011;18952;52.516;13.460;2023-04-25T05:01:30;13.80;;;5.68;;
32501;SDS011;18952;52.516;13.460;2023-04-25T05:03:57;15.52;;;5.90;;
32501;SDS011;18952;52.516;13.460;2023-04-25T05:06:24;13.25;;;5.70;;
32501;SDS011;18952;52.516;13.460;2023-04-25T05:08:51;11.60;;;5.38;;
32501;SDS011;18952;52.516;13.460;2023-04-25T05:11:19;13.90;;;5.50;;
32501;SDS011;18952;52.516;13.460;2023-04-25T05:13:46;12.95;;;5.95;;
32501;SDS011;18952;52.516;13.460;2023-04-25T05:16:14;11.02;;;5.45;;
32501;SDS011;18952;52.516;13.460;2023-04-25T05:18:45;11.20;;;5.78;;
32501;SDS011;18952;52.516;13.460;2023-04-25T05:21:13;16.73;;;6.22;;
32501;SDS011;18952;52.516;13.460;2023-04-25T05:23:41;16.55;;;6.32;;
32501;SDS011;18952;52.516;13.460;2023-04-25T05:26:09;12.32;;;5.32;;
32501;SDS011;18952;52.516;13.460;2023-04-25T05:28:46;12.75;;;5.68;;
32501;SDS011;18952;52.516;13.460;2023-04-25T05:31:14;13.75;;;5.28;;
32501;SDS011;18952;52.516;13.460;2023-04-25T05:33:44;17.92;;;5.60;;
32501;SDS011;18952;52.516;13.460;2023-04-25T05:36:12;11.88;;;5.40;;
32501;SDS011;18952;52.516;13.460;2023-04-25T05:38:39;12.25;;;5.72;;
32501;SDS011;18952;52.516;13.460;2023-04-25T05:41:06;11.77;;;5.35;;
32501;SDS011;18952;52.516;13.460;2023-04-25T05:43:33;13.00;;;5.32;;
32501;SDS011;18952;52.516;13.460;2023-04-25T05:46:00;11.38;;;5.40;;
32501;SDS011;18952;52.516;13.460;2023-04-25T05:48:27;15.30;;;6.00;;
32501;SDS011;18952;52.516;13.460;2023-04-25T05:50:54;11.80;;;5.43;;
32501;SDS011;18952;52.516;13.460;2023-04-25T05:53:21;18.58;;;6.15;;
32501;SDS011;18952;52.516;13.460;2023-04-25T05:55:49;12.57;;;5.85;;
32501;SDS011;18952;52.516;13.460;2023-04-25T05:58:16;12.68;;;5.53;;
32501;SDS011;18952;52.516;13.460;2023-04-25T06:00:42;16.75;;;6.55;;
32501;SDS011;18952;52.516;13.460;2023-04-25T06:03:10;17.17;;;6.13;;
32501;SDS011;18952;52.516;13.460;2023-04-25T06:05:37;12.00;;;6.35;;
32501;SDS011;18952;52.516;13.460;2023-04-25T06:08:05;14.45;;;6.35;;
32501;SDS011;18952;52.516;13.460;2023-04-25T06:10:35;19.52;;;7.00;;
32501;SDS011;18952;52.516;13.460;2023-04-25T06:13:06;14.85;;;6.57;;
32501;SDS011;18952;52.516;13.460;2023-04-25T06:15:36;17.13;;;6.97;;
32501;SDS011;18952;52.516;13.460;2023-04-25T06:18:16;17.25;;;7.25;;
32501;SDS011;18952;52.516;13.460;2023-04-25T06:20:43;14.23;;;6.53;;
32501;SDS011;18952;52.516;13.460;2023-04-25T06:23:11;17.38;;;7.65;;
32501;SDS011;18952;52.516;13.460;2023-04-25T06:25:41;14.60;;;6.78;;
32501;SDS011;18952;52.516;13.460;2023-04-25T06:28:10;14.65;;;7.55;;
32501;SDS011;18952;52.516;13.460;2023-04-25T06:30:38;17.17;;;7.28;;
32501;SDS011;18952;52.516;13.460;2023-04-25T06:33:05;12.80;;;6.78;;
32501;SDS011;18952;52.516;13.460;2023-04-25T06:35:32;13.55;;;6.68;;
32501;SDS011;18952;52.516;13.460;2023-04-25T06:37:59;14.07;;;6.68;;
32501;SDS011;18952;52.516;13.460;2023-04-25T06:40:28;16.13;;;7.15;;
32501;SDS011;18952;52.516;13.460;2023-04-25T06:42:55;16.75;;;7.03;;
32501;SDS011;18952;52.516;13.460;2023-04-25T06:45:22;14.38;;;7.13;;
32501;SDS011;18952;52.516;13.460;2023-04-25T06:47:49;23.92;;;7.80;;
32501;SDS011;18952;52.516;13.460;2023-04-25T06:50:18;19.27;;;7.38;;
32501;SDS011;18952;52.516;13.460;2023-04-25T06:52:45;16.35;;;7.55;;
32501;SDS011;18952;52.516;13.460;2023-04-25T06:55:13;14.15;;;6.93;;
32501;SDS011;18952;52.516;13.460;2023-04-25T06:57:41;14.65;;;6.78;;
32501;SDS011;18952;52.516;13.460;2023-04-25T07:00:09;15.30;;;6.97;;
32501;SDS011;18952;52.516;13.460;2023-04-25T07:02:36;17.17;;;7.15;;
32501;SDS011;18952;52.516;13.460;2023-04-25T07:05:05;14.23;;;7.22;;
32501;SDS011;18952;52.516;13.460;2023-04-25T07:07:43;10.73;;;6.00;;
32501;SDS011;18952;52.516;13.460;2023-04-25T07:10:11;13.07;;;6.82;;
32501;SDS011;18952;52.516;13.460;2023-04-25T07:12:40;13.43;;;6.88;;
32501;SDS011;18952;52.516;13.460;2023-04-25T07:15:07;14.70;;;7.32;;
32501;SDS011;18952;52.516;13.460;2023-04-25T07:17:37;12.27;;;5.97;;
32501;SDS011;18952;52.516;13.460;2023-04-25T07:20:05;14.65;;;6.70;;
32501;SDS011;18952;52.516;13.460;2023-04-25T07:22:32;19.58;;;7.50;;
32501;SDS011;18952;52.516;13.460;2023-04-25T07:24:59;17.77;;;7.22;;
32501;SDS011;18952;52.516;13.460;2023-04-25T07:27:26;12.98;;;7.38;;
32501;SDS011;18952;52.516;13.460;2023-04-25T07:29:55;11.95;;;6.78;;
32501;SDS011;18952;52.516;13.460;2023-04-25T07:32:23;13.80;;;6.90;;
32501;SDS011;18952;52.516;13.460;2023-04-25T07:34:50;14.55;;;6.18;;
32501;SDS011;18952;52.516;13.460;2023-04-25T07:37:17;15.52;;;5.93;;
32501;SDS011;18952;52.516;13.460;2023-04-25T07:39:45;19.58;;;6.72;;
32501;SDS011;18952;52.516;13.460;2023-04-25T07:42:12;15.02;;;6.28;;
32501;SDS011;18952;52.516;13.460;2023-04-25T07:44:40;20.10;;;6.60;;
32501;SDS011;18952;52.516;13.460;2023-04-25T07:47:07;13.80;;;6.40;;
32501;SDS011;18952;52.516;13.460;2023-04-25T07:49:36;19.80;;;6.07;;
32501;SDS011;18952;52.516;13.460;2023-04-25T07:52:10;21.70;;;6.18;;
32501;SDS011;18952;52.516;13.460;2023-04-25T07:54:41;21.45;;;6.63;;
32501;SDS011;18952;52.516;13.460;2023-04-25T07:57:08;18.10;;;6.03;;
32501;SDS011;18952;52.516;13.460;2023-04-25T07:59:36;23.48;;;6.63;;
32501;SDS011;18952;52.516;13.460;2023-04-25T08:02:05;26.38;;;6.70;;
32501;SDS011;18952;52.516;13.460;2023-04-25T08:04:32;26.00;;;6.50;;
32501;SDS011;18952;52.516;13.460;2023-04-25T08:07:04;20.15;;;6.47;;
32501;SDS011;18952;52.516;13.460;2023-04-25T08:09:32;22.80;;;6.93;;
32501;SDS011;18952;52.516;13.460;2023-04-25T08:12:02;23.70;;;6.20;;
32501;SDS011;18952;52.516;13.460;2023-04-25T08:14:30;27.95;;;6.50;;
32501;SDS011;18952;52.516;13.460;2023-04-25T08:16:56;25.98;;;6.80;;
32501;SDS011;18952;52.516;13.460;2023-04-25T08:19:23;25.85;;;6.40;;
32501;SDS011;18952;52.516;13.460;2023-04-25T08:21:50;20.08;;;6.18;;
32501;SDS011;18952;52.516;13.460;2023-04-25T08:24:17;23.45;;;6.30;;
32501;SDS011;18952;52.516;13.460;2023-04-25T08:26:44;26.30;;;6.30;;
32501;SDS011;18952;52.516;13.460;2023-04-25T08:29:10;28.17;;;6.68;;
32501;SDS011;18952;52.516;13.460;2023-04-25T08:31:37;30.55;;;6.97;;
32501;SDS011;18952;52.516;13.460;2023-04-25T08:34:06;38.47;;;7.32;;
32501;SDS011;18952;52.516;13.460;2023-04-25T08:36:33;29.05;;;5.95;;
32501;SDS011;18952;52.516;13.460;2023-04-25T08:39:06;30.20;;;6.05;;
32501;SDS011;18952;52.516;13.460;2023-04-25T08:41:33;27.27;;;6.32;;
32501;SDS011;18952;52.516;13.460;2023-04-25T08:44:03;28.13;;;6.75;;
32501;SDS011;18952;52.516;13.460;2023-04-25T08:46:34;27.25;;;6.28;;
32501;SDS011;18952;52.516;13.460;2023-04-25T08:49:04;27.92;;;6.35;;
32501;SDS011;18952;52.516;13.460;2023-04-25T08:51:31;27.95;;;6.60;;
32501;SDS011;18952;52.516;13.460;2023-04-25T08:54:05;33.85;;;6.43;;
32501;SDS011;18952;52.516;13.460;2023-04-25T08:56:46;23.52;;;6.32;;
32501;SDS011;18952;52.516;13.460;2023-04-25T08:59:14;23.48;;;6.13;;
32501;SDS011;18952;52.516;13.460;2023-04-25T09:01:43;25.17;;;6.55;;
32501;SDS011;18952;52.516;13.460;2023-04-25T09:04:13;22.65;;;5.38;;
32501;SDS011;18952;52.516;13.460;2023-04-25T09:06:41;21.65;;;5.32;;
32501;SDS011;18952;52.516;13.460;2023-04-25T09:09:13;27.02;;;6.00;;
32501;SDS011;18952;52.516;13.460;2023-04-25T09:11:40;23.38;;;5.30;;
32501;SDS011;18952;52.516;13.460;2023-04-25T09:14:14;21.83;;;5.32;;
32501;SDS011;18952;52.516;13.460;2023-04-25T09:16:59;22.98;;;5.57;;
32501;SDS011;18952;52.516;13.460;2023-04-25T09:22:04;23.85;;;4.88;;
32501;SDS011;18952;52.516;13.460;2023-04-25T09:24:40;24.42;;;5.05;;
32501;SDS011;18952;52.516;13.460;2023-04-25T09:27:12;24.70;;;5.40;;
32501;SDS011;18952;52.516;13.460;2023-04-25T09:29:45;18.98;;;5.30;;
32501;SDS011;18952;52.516;13.460;2023-04-25T09:32:19;22.65;;;4.93;;
32501;SDS011;18952;52.516;13.460;2023-04-25T09:34:50;23.02;;;4.88;;
32501;SDS011;18952;52.516;13.460;2023-04-25T09:37:22;20.98;;;4.80;;
32501;SDS011;18952;52.516;13.460;2023-04-25T09:39:54;26.73;;;5.53;;
32501;SDS011;18952;52.516;13.460;2023-04-25T09:42:36;25.75;;;5.60;;
32501;SDS011;18952;52.516;13.460;2023-04-25T09:45:18;24.77;;;5.68;;
32501;SDS011;18952;52.516;13.460;2023-04-25T09:47:46;24.58;;;5.38;;
32501;SDS011;18952;52.516;13.460;2023-04-25T09:50:16;22.25;;;5.55;;
32501;SDS011;18952;52.516;13.460;2023-04-25T09:52:44;20.00;;;5.50;;
32501;SDS011;18952;52.516;13.460;2023-04-25T09:55:12;21.42;;;4.60;;
32501;SDS011;18952;52.516;13.460;2023-04-25T09:57:41;20.40;;;4.47;;
32501;SDS011;18952;52.516;13.460;2023-04-25T10:00:12;18.05;;;4.75;;
32501;SDS011;18952;52.516;13.460;2023-04-25T10:02:49;14.02;;;4.32;;
32501;SDS011;18952;52.516;13.460;2023-04-25T10:05:18;25.13;;;4.75;;
32501;SDS011;18952;52.516;13.460;2023-04-25T10:07:49;20.15;;;4.97;;
32501;SDS011;18952;52.516;13.460;2023-04-25T10:10:24;15.40;;;4.10;;
32501;SDS011;18952;52.516;13.460;2023-04-25T10:12:51;18.83;;;4.07;;
32501;SDS011;18952;52.516;13.460;2023-04-25T10:15:21;21.23;;;4.88;;
32501;SDS011;18952;52.516;13.460;2023-04-25T10:17:49;18.60;;;4.35;;
32501;SDS011;18952;52.516;13.460;2023-04-25T10:20:16;14.75;;;4.18;;
32501;SDS011;18952;52.516;13.460;2023-04-25T10:22:46;16.77;;;4.50;;
32501;SDS011;18952;52.516;13.460;2023-04-25T10:25:14;18.58;;;4.03;;
32501;SDS011;18952;52.516;13.460;2023-04-25T10:27:41;20.20;;;4.53;;
32501;SDS011;18952;52.516;13.460;2023-04-25T10:30:08;16.02;;;4.80;;
32501;SDS011;18952;52.516;13.460;2023-04-25T10:32:38;16.10;;;3.83;;
32501;SDS011;18952;52.516;13.460;2023-04-25T10:35:12;17.27;;;3.95;;
32501;SDS011;18952;52.516;13.460;2023-04-25T10:40:35;17.35;;;4.47;;
32501;SDS011;18952;52.516;13.460;2023-04-25T10:43:45;18.20;;;4.07;;
32501;SDS011;18952;52.516;13.460;2023-04-25T10:46:00;21.92;;;4.93;;
32501;SDS011;18952;52.516;13.460;2023-04-25T10:48:28;18.63;;;3.95;;
32501;SDS011;18952;52.516;13.460;2023-04-25T10:51:11;14.80;;;4.22;;
32501;SDS011;18952;52.516;13.460;2023-04-25T10:56:23;13.38;;;4.03;;
32501;SDS011;18952;52.516;13.460;2023-04-25T10:59:14;13.10;;;3.72;;
32501;SDS011;18952;52.516;13.460;2023-04-25T11:01:43;18.17;;;4.15;;
32501;SDS011;18952;52.516;13.460;2023-04-25T11:07:02;14.45;;;4.10;;
32501;SDS011;18952;52.516;13.460;2023-04-25T11:09:40;12.93;;;3.50;;
32501;SDS011;18952;52.516;13.460;2023-04-25T11:12:07;18.17;;;3.80;;
32501;SDS011;18952;52.516;13.460;2023-04-25T11:14:38;18.20;;;3.63;;
32501;SDS011;18952;52.516;13.460;2023-04-25T11:17:05;13.75;;;4.03;;
32501;SDS011;18952;52.516;13.460;2023-04-25T11:19:32;14.07;;;3.85;;
32501;SDS011;18952;52.516;13.460;2023-04-25T11:22:00;15.05;;;4.00;;
32501;SDS011;18952;52.516;13.460;2023-04-25T11:24:30;11.40;;;3.83;;
32501;SDS011;18952;52.516;13.460;2023-04-25T11:26:58;16.23;;;4.00;;
32501;SDS011;18952;52.516;13.460;2023-04-25T11:29:29;12.15;;;3.75;;
32501;SDS011;18952;52.516;13.460;2023-04-25T11:31:58;16.48;;;4.30;;
32501;SDS011;18952;52.516;13.460;2023-04-25T11:34:25;21.55;;;4.13;;
32501;SDS011;18952;52.516;13.460;2023-04-25T11:36:52;13.82;;;4.00;;
32501;SDS011;18952;52.516;13.460;2023-04-25T11:39:20;17.33;;;4.05;;
32501;SDS011;18952;52.516;13.460;2023-04-25T11:41:47;20.10;;;3.60;;
32501;SDS011;18952;52.516;13.460;2023-04-25T11:44:18;11.13;;;3.17;;
32501;SDS011;18952;52.516;13.460;2023-04-25T11:46:47;16.52;;;3.92;;
32501;SDS011;18952;52.516;13.460;2023-04-25T11:49:17;13.00;;;3.05;;
32501;SDS011;18952;52.516;13.460;2023-04-25T11:51:47;11.90;;;3.55;;
32501;SDS011;18952;52.516;13.460;2023-04-25T11:54:16;10.30;;;3.53;;
32501;SDS011;18952;52.516;13.460;2023-04-25T11:56:44;8.73;;;3.00;;
32501;SDS011;18952;52.516;13.460;2023-04-25T11:59:16;11.95;;;3.50;;
32501;SDS011;18952;52.516;13.460;2023-04-25T12:01:49;11.15;;;3.38;;
32501;SDS011;18952;52.516;13.460;2023-04-25T12:04:23;11.73;;;3.55;;
32501;SDS011;18952;52.516;13.460;2023-04-25T12:06:53;14.95;;;3.42;;
32501;SDS011;18952;52.516;13.460;2023-04-25T12:09:31;12.95;;;3.25;;
32501;SDS011;18952;52.516;13.460;2023-04-25T12:12:00;9.25;;;3.05;;
32501;SDS011;18952;52.516;13.460;2023-04-25T12:14:29;17.90;;;3.63;;
32501;SDS011;18952;52.516;13.460;2023-04-25T12:16:58;16.25;;;3.85;;
32501;SDS011;18952;52.516;13.460;2023-04-25T12:19:26;15.25;;;3.88;;
32501;SDS011;18952;52.516;13.460;2023-04-25T12:21:58;14.98;;;3.20;;
32501;SDS011;18952;52.516;13.460;2023-04-25T12:24:32;10.73;;;3.35;;
32501;SDS011;18952;52.516;13.460;2023-04-25T12:27:06;9.65;;;3.35;;
32501;SDS011;18952;52.516;13.460;2023-04-25T12:29:35;9.18;;;3.38;;
32501;SDS011;18952;52.516;13.460;2023-04-25T12:32:16;12.60;;;3.55;;
32501;SDS011;18952;52.516;13.460;2023-04-25T12:34:43;13.20;;;3.25;;
32501;SDS011;18952;52.516;13.460;2023-04-25T12:37:13;13.65;;;3.70;;
32501;SDS011;18952;52.516;13.460;2023-04-25T12:39:50;12.07;;;3.40;;
32501;SDS011;18952;52.516;13.460;2023-04-25T12:42:17;12.32;;;3.15;;
32501;SDS011;18952;52.516;13.460;2023-04-25T12:44:45;12.48;;;3.30;;
32501;SDS011;18952;52.516;13.460;2023-04-25T12:47:13;17.98;;;3.63;;
32501;SDS011;18952;52.516;13.460;2023-04-25T12:49:49;10.45;;;3.03;;
32501;SDS011;18952;52.516;13.460;2023-04-25T12:52:16;12.10;;;3.22;;
32501;SDS011;18952;52.516;13.460;2023-04-25T12:54:42;14.18;;;3.63;;
32501;SDS011;18952;52.516;13.460;2023-04-25T12:57:09;15.13;;;3.45;;
32501;SDS011;18952;52.516;13.460;2023-04-25T12:59:39;10.40;;;2.92;;
32501;SDS011;18952;52.516;13.460;2023-04-25T13:02:06;9.65;;;2.40;;
32501;SDS011;18952;52.516;13.460;2023-04-25T13:04:33;8.95;;;2.47;;
32501;SDS011;18952;52.516;13.460;2023-04-25T13:07:00;7.00;;;1.90;;
32501;SDS011;18952;52.516;13.460;2023-04-25T13:09:27;8.05;;;2.22;;
32501;SDS011;18952;52.516;13.460;2023-04-25T13:11:54;8.50;;;2.58;;
32501;SDS011;18952;52.516;13.460;2023-04-25T13:14:24;8.95;;;2.50;;
32501;SDS011;18952;52.516;13.460;2023-04-25T13:16:51;10.27;;;2.80;;
32501;SDS011;18952;52.516;13.460;2023-04-25T13:19:19;9.73;;;2.35;;
32501;SDS011;18952;52.516;13.460;2023-04-25T13:21:46;9.38;;;2.63;;
32501;SDS011;18952;52.516;13.460;2023-04-25T13:24:14;9.10;;;2.30;;
32501;SDS011;18952;52.516;13.460;2023-04-25T13:26:42;8.23;;;2.25;;
32501;SDS011;18952;52.516;13.460;2023-04-25T13:29:10;8.57;;;2.35;;
32501;SDS011;18952;52.516;13.460;2023-04-25T13:31:41;8.98;;;2.33;;
32501;SDS011;18952;52.516;13.460;2023-04-25T13:34:10;8.23;;;2.55;;
32501;SDS011;18952;52.516;13.460;2023-04-25T13:36:37;10.98;;;2.63;;
32501;SDS011;18952;52.516;13.460;2023-04-25T13:39:04;11.10;;;2.72;;
32501;SDS011;18952;52.516;13.460;2023-04-25T13:41:30;11.07;;;2.70;;
32501;SDS011;18952;52.516;13.460;2023-04-25T13:43:57;12.68;;;2.70;;
32501;SDS011;18952;52.516;13.460;2023-04-25T13:46:24;10.70;;;2.55;;
32501;SDS011;18952;52.516;13.460;2023-04-25T13:49:11;9.52;;;2.90;;
32501;SDS011;18952;52.516;13.460;2023-04-25T13:51:50;16.30;;;3.45;;
32501;SDS011;18952;52.516;13.460;2023-04-25T13:54:22;14.57;;;3.22;;
32501;SDS011;18952;52.516;13.460;2023-04-25T13:56:49;10.43;;;3.20;;
32501;SDS011;18952;52.516;13.460;2023-04-25T13:59:15;14.20;;;2.85;;
32501;SDS011;18952;52.516;13.460;2023-04-25T14:01:42;11.18;;;3.10;;
32501;SDS011;18952;52.516;13.460;2023-04-25T14:04:09;12.38;;;2.50;;
32501;SDS011;18952;52.516;13.460;2023-04-25T14:06:36;12.20;;;2.45;;
32501;SDS011;18952;52.516;13.460;2023-04-25T14:09:03;12.02;;;2.65;;
32501;SDS011;18952;52.516;13.460;2023-04-25T14:11:30;11.30;;;2.70;;
32501;SDS011;18952;52.516;13.460;2023-04-25T14:13:59;9.48;;;3.20;;
32501;SDS011;18952;52.516;13.460;2023-04-25T14:16:25;11.07;;;2.88;;
32501;SDS011;18952;52.516;13.460;2023-04-25T14:18:54;14.07;;;2.92;;
32501;SDS011;18952;52.516;13.460;2023-04-25T14:21:40;10.68;;;3.05;;
32501;SDS011;18952;52.516;13.460;2023-04-25T14:24:16;10.15;;;2.50;;
32501;SDS011;18952;52.516;13.460;2023-04-25T14:26:44;12.35;;;2.97;;
32501;SDS011;18952;52.516;13.460;2023-04-25T14:29:12;7.45;;;2.55;;
32501;SDS011;18952;52.516;13.460;2023-04-25T14:31:39;10.98;;;2.70;;
32501;SDS011;18952;52.516;13.460;2023-04-25T14:34:08;13.32;;;2.55;;
32501;SDS011;18952;52.516;13.460;2023-04-25T14:36:35;9.95;;;2.47;;
32501;SDS011;18952;52.516;13.460;2023-04-25T14:39:03;13.25;;;3.00;;
32501;SDS011;18952;52.516;13.460;2023-04-25T14:41:30;7.50;;;2.30;;
32501;SDS011;18952;52.516;13.460;2023-04-25T14:43:57;11.23;;;2.40;;
32501;SDS011;18952;52.516;13.460;2023-04-25T14:46:23;10.05;;;2.50;;
32501;SDS011;18952;52.516;13.460;2023-04-25T14:48:50;10.55;;;2.45;;